Aviation Digital Data Service (ADDS)

Output produced by METARs form (1153 UTC 26 August 2016)
found at http://www.aviationweather.gov/adds/metars/
 
METAR text: EPKK 261130Z 09007KT 050V140 CAVOK 24/13 Q1023
Conditions at: EPKK (KRAKOW/BALICE , PL) observed 1130 UTC 26 August 2016
Temperature: 24.0°C (75°F)
Dewpoint: 13.0°C (55°F) [RH = 50%]
Pressure (altimeter): 30.21 inches Hg (1023.0 mb)
Winds: from the E (90 degrees) at 8 MPH (7 knots; 3.6 m/s)
Visibility: 6 or more miles (10+ km)
Ceiling: ceiling and visibility are OK
Clouds: unknown
Weather: no significant weather observed at this time

Forecast for: EPKK (KRAKOW/BALICE , PL)
Text: TAF EPKK 261130Z 2612/2712 08007KT CAVOK
Forecast period: 1200 UTC 26 August 2016 to 1200 UTC 27 August 2016
Forecast type: FROM: standard forecast or significant change
Winds: from the E (80 degrees) at 8 MPH (7 knots; 3.6 m/s)
Visibility: 6 or more miles (10+ km)
Clouds: not forecast
Weather: NSW  (no significant weather)